createdAt,value
2017-08-03T00:00:24.721Z,24.06
2017-08-03T00:01:46.406Z,24.06
2017-08-03T00:03:08.163Z,24.06
2017-08-03T00:04:29.879Z,24.06
2017-08-03T00:05:52.104Z,24.06
2017-08-03T00:07:13.840Z,24.06
2017-08-03T00:08:35.545Z,24.06
2017-08-03T00:09:57.260Z,24.06
2017-08-03T00:11:19.480Z,24.06
2017-08-03T00:12:41.207Z,24.06
2017-08-03T00:14:02.918Z,24.06
2017-08-03T00:15:24.643Z,24.06
2017-08-03T00:16:46.801Z,24.06
2017-08-03T00:18:08.566Z,24.06
2017-08-03T00:19:30.285Z,24.06
2017-08-03T00:20:52.122Z,24.06
2017-08-03T00:22:14.341Z,24.06
2017-08-03T00:23:37.228Z,24.06
2017-08-03T00:24:58.961Z,24.06
2017-08-03T00:26:20.721Z,24.06
2017-08-03T00:27:42.920Z,24.06
2017-08-03T00:29:04.645Z,24.06
2017-08-03T00:30:26.402Z,24
2017-08-03T00:31:48.180Z,24.06
2017-08-03T00:33:10.403Z,24.06
2017-08-03T00:34:32.122Z,24.06
2017-08-03T00:35:53.882Z,24.06
2017-08-03T00:37:15.625Z,24.06
2017-08-03T00:38:37.826Z,24.06
2017-08-03T00:39:59.527Z,24.06
2017-08-03T00:41:21.263Z,24.06
2017-08-03T00:42:42.980Z,24
2017-08-03T00:44:05.105Z,24.06
2017-08-03T00:45:26.820Z,24
2017-08-03T00:46:48.519Z,24.06
2017-08-03T00:48:10.221Z,24.06
2017-08-03T00:49:32.450Z,24.06
2017-08-03T00:50:54.140Z,24
2017-08-03T00:52:15.863Z,24.06
2017-08-03T00:53:37.584Z,24
2017-08-03T00:54:59.761Z,24
2017-08-03T00:56:21.500Z,24
2017-08-03T00:57:43.221Z,24
2017-08-03T00:59:04.949Z,24
2017-08-03T01:00:27.167Z,24
2017-08-03T01:01:48.900Z,24
2017-08-03T01:03:12.323Z,24
2017-08-03T01:04:34.065Z,24
2017-08-03T01:05:56.261Z,24
2017-08-03T01:07:17.988Z,24
2017-08-03T01:08:39.722Z,24
2017-08-03T01:10:01.470Z,24
2017-08-03T01:11:23.688Z,24
2017-08-03T01:12:45.420Z,24
2017-08-03T01:14:07.183Z,24
2017-08-03T01:15:28.944Z,24
2017-08-03T01:16:51.186Z,24
2017-08-03T01:18:12.928Z,24
2017-08-03T01:19:34.659Z,24
2017-08-03T01:20:56.404Z,24
2017-08-03T01:22:18.622Z,24
2017-08-03T01:23:40.326Z,24
2017-08-03T01:25:02.063Z,24
2017-08-03T01:26:23.798Z,24
2017-08-03T01:27:46.027Z,24
2017-08-03T01:29:07.805Z,24
2017-08-03T01:30:29.544Z,24
2017-08-03T01:31:51.302Z,24
2017-08-03T01:33:13.547Z,24
2017-08-03T01:34:35.301Z,24
2017-08-03T01:35:57.008Z,24
2017-08-03T01:37:18.763Z,24
2017-08-03T01:38:40.942Z,24
2017-08-03T01:40:02.640Z,24
2017-08-03T01:41:24.364Z,24
2017-08-03T01:42:46.109Z,24
2017-08-03T01:44:08.361Z,24
2017-08-03T01:45:30.063Z,24
2017-08-03T01:46:51.764Z,24
2017-08-03T01:48:13.457Z,24
2017-08-03T01:49:35.680Z,24
2017-08-03T01:50:57.401Z,24
2017-08-03T01:52:19.188Z,24
2017-08-03T01:53:40.963Z,24
2017-08-03T01:55:03.165Z,24
2017-08-03T01:56:24.902Z,24
2017-08-03T01:57:46.684Z,24
2017-08-03T01:59:08.349Z,24
2017-08-03T02:00:30.522Z,24
2017-08-03T02:01:52.241Z,24
2017-08-03T02:03:13.978Z,23.94
2017-08-03T02:04:35.683Z,24
2017-08-03T02:05:57.902Z,24
2017-08-03T02:07:19.616Z,24
2017-08-03T02:08:41.288Z,24
2017-08-03T02:10:03.025Z,23.94
2017-08-03T02:11:25.238Z,24
2017-08-03T02:12:46.977Z,23.94
2017-08-03T02:14:08.684Z,23.94
2017-08-03T02:15:30.371Z,23.94
2017-08-03T02:16:52.601Z,24
2017-08-03T02:18:14.344Z,24
2017-08-03T02:19:36.064Z,24
2017-08-03T02:20:57.782Z,23.94
2017-08-03T02:22:19.984Z,23.94
2017-08-03T02:23:41.723Z,24
2017-08-03T02:25:03.446Z,23.94
2017-08-03T02:26:25.169Z,23.94
2017-08-03T02:27:47.339Z,23.94
2017-08-03T02:29:09.059Z,23.94
2017-08-03T02:30:30.765Z,23.94
2017-08-03T02:31:52.489Z,23.94
2017-08-03T02:33:14.733Z,23.94
2017-08-03T02:34:36.485Z,23.94
2017-08-03T02:35:58.226Z,23.94
2017-08-03T02:37:19.958Z,23.94
2017-08-03T02:38:42.277Z,23.94
2017-08-03T02:40:04.088Z,23.94
2017-08-03T02:41:25.833Z,23.94
2017-08-03T02:42:47.504Z,23.94
2017-08-03T02:44:09.743Z,23.94
2017-08-03T02:45:31.460Z,23.94
2017-08-03T02:46:53.220Z,23.94
2017-08-03T02:48:14.898Z,23.94
2017-08-03T02:49:37.063Z,23.94
2017-08-03T02:50:58.805Z,24
2017-08-03T02:52:20.582Z,23.94
2017-08-03T02:53:42.344Z,23.94
2017-08-03T02:55:04.584Z,23.94
2017-08-03T02:56:26.340Z,23.94
2017-08-03T02:57:48.060Z,23.94
2017-08-03T02:59:12.661Z,23.94
2017-08-03T03:00:34.865Z,23.94
2017-08-03T03:01:56.556Z,23.94
2017-08-03T03:03:18.260Z,23.94
2017-08-03T03:04:39.978Z,23.94
2017-08-03T03:06:02.183Z,23.94
2017-08-03T03:07:23.922Z,23.94
2017-08-03T03:08:45.655Z,23.94
2017-08-03T03:10:07.397Z,23.94
2017-08-03T03:11:29.639Z,23.94
2017-08-03T03:12:51.404Z,23.94
2017-08-03T03:14:15.987Z,23.94
2017-08-03T03:15:37.725Z,23.94
2017-08-03T03:16:59.904Z,23.94
2017-08-03T03:18:21.665Z,23.94
2017-08-03T03:19:43.401Z,23.94
2017-08-03T03:21:05.126Z,23.94
2017-08-03T03:22:27.407Z,23.94
2017-08-03T03:23:49.148Z,23.94
2017-08-03T03:25:10.883Z,23.94
2017-08-03T03:26:32.622Z,23.94
2017-08-03T03:27:54.829Z,23.94
2017-08-03T03:29:16.563Z,23.94
2017-08-03T03:30:38.320Z,23.94
2017-08-03T03:32:00.057Z,23.94
2017-08-03T03:33:22.267Z,23.94
2017-08-03T03:34:45.105Z,23.94
2017-08-03T03:36:06.867Z,23.94
2017-08-03T03:37:28.623Z,23.94
2017-08-03T03:38:50.862Z,23.94
2017-08-03T03:40:12.623Z,23.94
2017-08-03T03:41:34.382Z,23.94
2017-08-03T03:42:56.123Z,23.94
2017-08-03T03:44:18.363Z,23.94
2017-08-03T03:45:40.038Z,23.94
2017-08-03T03:47:01.784Z,23.94
2017-08-03T03:48:23.584Z,23.94
2017-08-03T03:49:45.786Z,23.94
2017-08-03T03:51:07.546Z,23.94
2017-08-03T03:52:29.282Z,23.94
2017-08-03T03:53:51.002Z,23.94
2017-08-03T03:55:13.307Z,23.94
2017-08-03T03:56:35.066Z,23.94
2017-08-03T03:57:56.802Z,23.94
2017-08-03T03:59:18.503Z,23.94
2017-08-03T04:00:40.682Z,23.94
2017-08-03T04:02:02.564Z,23.94
2017-08-03T04:03:24.625Z,23.94
2017-08-03T04:04:46.363Z,23.88
2017-08-03T04:06:08.631Z,23.88
2017-08-03T04:07:30.382Z,23.94
2017-08-03T04:08:52.148Z,23.94
2017-08-03T04:10:13.882Z,23.94
2017-08-03T04:11:36.168Z,23.88
2017-08-03T04:12:57.870Z,23.94
2017-08-03T04:14:19.622Z,23.94
2017-08-03T04:15:41.301Z,23.94
2017-08-03T04:17:03.503Z,23.88
2017-08-03T04:18:25.245Z,23.88
2017-08-03T04:19:46.974Z,23.94
2017-08-03T04:21:08.763Z,23.94
2017-08-03T04:22:31.023Z,23.94
2017-08-03T04:23:52.723Z,23.94
2017-08-03T04:25:14.423Z,23.94
2017-08-03T04:26:36.245Z,23.94
2017-08-03T04:27:58.465Z,23.94
2017-08-03T04:29:20.159Z,23.88
2017-08-03T04:30:41.841Z,23.94
2017-08-03T04:32:03.660Z,23.88
2017-08-03T04:33:27.268Z,23.88
2017-08-03T04:34:49.025Z,23.88
2017-08-03T04:36:10.761Z,23.88
2017-08-03T04:37:32.523Z,23.88
2017-08-03T04:38:54.866Z,23.94
2017-08-03T04:40:16.564Z,23.88
2017-08-03T04:41:38.324Z,23.88
2017-08-03T04:43:00.044Z,23.88
2017-08-03T04:44:22.568Z,23.88
2017-08-03T04:45:44.282Z,23.88
2017-08-03T04:47:06.044Z,23.88
2017-08-03T04:48:27.844Z,23.88
2017-08-03T04:49:50.388Z,23.88
2017-08-03T04:51:12.162Z,23.88
2017-08-03T04:52:33.847Z,23.94
2017-08-03T04:53:55.646Z,23.88
2017-08-03T04:55:17.904Z,23.88
2017-08-03T04:56:39.685Z,23.88
2017-08-03T04:58:01.381Z,23.88
2017-08-03T04:59:23.110Z,23.88
2017-08-03T05:00:45.289Z,23.88
2017-08-03T05:02:09.947Z,23.88
2017-08-03T05:03:31.629Z,23.88
2017-08-03T05:04:53.387Z,23.88
2017-08-03T05:06:15.625Z,23.88
2017-08-03T05:07:37.343Z,23.94
2017-08-03T05:08:59.062Z,23.88
2017-08-03T05:10:20.765Z,23.88
2017-08-03T05:11:43.064Z,23.88
2017-08-03T05:13:04.828Z,23.88
2017-08-03T05:14:26.586Z,23.88
2017-08-03T05:15:48.323Z,23.88
2017-08-03T05:17:10.587Z,23.88
2017-08-03T05:18:32.322Z,23.88
2017-08-03T05:19:54.430Z,23.88
2017-08-03T05:21:16.125Z,23.88
2017-08-03T05:22:38.326Z,23.88
2017-08-03T05:24:00.462Z,23.88
2017-08-03T05:25:22.205Z,23.88
2017-08-03T05:26:43.910Z,23.88
2017-08-03T05:28:06.163Z,23.88
2017-08-03T05:29:27.844Z,23.88
2017-08-03T05:30:49.628Z,23.88
2017-08-03T05:32:11.431Z,23.88
2017-08-03T05:33:33.618Z,23.88
2017-08-03T05:34:55.378Z,23.88
2017-08-03T05:36:17.150Z,23.88
2017-08-03T05:37:38.908Z,23.88
2017-08-03T05:39:01.192Z,23.88
2017-08-03T05:40:23.027Z,23.88
2017-08-03T05:41:45.064Z,23.88
2017-08-03T05:43:06.863Z,23.88
2017-08-03T05:44:29.212Z,23.88
2017-08-03T05:45:50.966Z,23.88
2017-08-03T05:47:12.661Z,23.88
2017-08-03T05:48:34.426Z,23.88
2017-08-03T05:49:57.023Z,23.88
2017-08-03T05:51:18.728Z,23.88
2017-08-03T05:52:40.485Z,23.88
2017-08-03T05:54:02.799Z,23.88
2017-08-03T05:55:25.069Z,23.88
2017-08-03T05:56:46.790Z,23.88
2017-08-03T05:58:08.466Z,23.88
2017-08-03T05:59:30.328Z,23.88
2017-08-03T06:00:52.881Z,23.88
2017-08-03T06:02:14.625Z,23.88
2017-08-03T06:03:36.407Z,23.88
2017-08-03T06:04:58.141Z,23.88
2017-08-03T06:06:20.387Z,23.88
2017-08-03T06:07:43.242Z,23.88
2017-08-03T06:09:06.286Z,23.88
2017-08-03T06:10:28.125Z,23.88
2017-08-03T06:11:50.393Z,23.88
2017-08-03T06:13:12.146Z,23.88
2017-08-03T06:14:34.518Z,23.88
2017-08-03T06:15:56.264Z,23.88
2017-08-03T06:17:18.485Z,23.88
2017-08-03T06:18:40.249Z,23.88
2017-08-03T06:20:01.983Z,23.88
2017-08-03T06:21:23.751Z,23.88
2017-08-03T06:22:46.498Z,23.88
2017-08-03T06:24:08.227Z,23.88
2017-08-03T06:25:29.982Z,23.88
2017-08-03T06:26:51.743Z,23.88
2017-08-03T06:28:13.949Z,23.88
2017-08-03T06:29:35.744Z,23.88
2017-08-03T06:30:57.526Z,23.88
2017-08-03T06:32:19.241Z,23.88
2017-08-03T06:33:41.504Z,23.88
2017-08-03T06:35:03.305Z,23.88
2017-08-03T06:36:24.971Z,23.88
2017-08-03T06:37:46.688Z,23.88
2017-08-03T06:39:08.883Z,23.88
2017-08-03T06:40:30.669Z,23.88
2017-08-03T06:41:52.484Z,23.88
2017-08-03T06:43:14.307Z,23.88
2017-08-03T06:44:38.388Z,23.88
2017-08-03T06:46:00.209Z,23.88
2017-08-03T06:47:22.503Z,23.88
2017-08-03T06:48:44.244Z,23.88
2017-08-03T06:50:06.784Z,23.88
2017-08-03T06:51:28.602Z,23.88
2017-08-03T06:52:50.385Z,23.88
2017-08-03T06:54:12.088Z,23.88
2017-08-03T06:55:34.561Z,23.88
2017-08-03T06:56:56.760Z,23.81
2017-08-03T06:58:18.726Z,23.69
2017-08-03T06:59:40.885Z,23.75
2017-08-03T07:01:03.152Z,23.63
2017-08-03T07:02:25.153Z,23.69
2017-08-03T07:03:47.534Z,23.69
2017-08-03T07:05:09.875Z,23.75
2017-08-03T07:06:32.576Z,23.81
2017-08-03T07:07:54.495Z,23.81
2017-08-03T07:09:16.895Z,23.81
2017-08-03T07:10:38.833Z,23.81
2017-08-03T07:12:02.037Z,23.75
2017-08-03T07:13:24.234Z,23.69
2017-08-03T07:14:46.160Z,23.81
2017-08-03T07:16:08.160Z,23.94
2017-08-03T07:17:31.345Z,24
2017-08-03T07:18:53.236Z,24
2017-08-03T07:20:15.678Z,24.06
2017-08-03T07:21:37.602Z,24.06
2017-08-03T07:23:00.365Z,24.06
2017-08-03T07:24:22.925Z,24.06
2017-08-03T07:25:45.332Z,24.13
2017-08-03T07:27:08.048Z,24.13
2017-08-03T07:28:31.048Z,24.13
2017-08-03T07:29:53.588Z,24.19
2017-08-03T07:31:16.049Z,24.19
2017-08-03T07:32:38.528Z,24.25
2017-08-03T07:34:01.727Z,24.25
2017-08-03T07:35:23.928Z,24.25
2017-08-03T07:36:46.627Z,24.31
2017-08-03T07:38:09.041Z,24.25
2017-08-03T07:39:32.124Z,24.25
2017-08-03T07:40:54.415Z,24.25
2017-08-03T07:42:16.215Z,24.19
2017-08-03T07:43:38.552Z,24.25
2017-08-03T07:45:01.475Z,24.19
2017-08-03T07:46:23.718Z,24.19
2017-08-03T07:47:45.736Z,24.19
2017-08-03T07:49:07.973Z,24.19
2017-08-03T07:50:30.475Z,24.19
2017-08-03T07:51:52.519Z,24.19
2017-08-03T07:53:14.604Z,24.25
2017-08-03T07:54:36.625Z,24.25
2017-08-03T07:55:59.575Z,24.31
2017-08-03T07:57:21.724Z,24.31
2017-08-03T07:58:43.860Z,24.31
2017-08-03T08:00:05.818Z,24.31
2017-08-03T08:01:28.444Z,24.31
2017-08-03T08:02:50.417Z,24.31
2017-08-03T08:04:12.587Z,24.31
2017-08-03T08:05:34.960Z,24.31
2017-08-03T08:06:58.744Z,24.31
2017-08-03T08:08:20.782Z,24.38
2017-08-03T08:09:42.942Z,24.38
2017-08-03T08:11:05.170Z,24.44
2017-08-03T08:12:28.344Z,24.5
2017-08-03T10:05:41.754Z,25.5
2017-08-03T10:07:04.526Z,25.56
2017-08-03T10:08:27.253Z,25.56
2017-08-03T10:09:50.096Z,25.56
2017-08-03T10:11:13.460Z,25.63
2017-08-03T10:12:35.553Z,25.63
2017-08-03T10:13:57.908Z,25.63
2017-08-03T10:15:25.656Z,25.56
2017-08-03T10:16:48.721Z,25.5
2017-08-03T10:18:11.139Z,25.44
2017-08-03T10:19:34.517Z,25.44
2017-08-03T10:20:57.219Z,25.38
2017-08-03T10:22:19.980Z,25.38
2017-08-03T10:23:43.335Z,25.38
2017-08-03T10:25:05.899Z,25.38
2017-08-03T10:26:28.015Z,25.38
2017-08-03T10:27:51.222Z,25.44
2017-08-03T10:29:13.999Z,25.5
2017-08-03T10:30:36.361Z,25.5
2017-08-03T10:31:59.316Z,25.56
2017-08-03T10:33:23.667Z,25.56
2017-08-03T10:34:46.506Z,25.56
2017-08-03T10:36:08.886Z,25.63
2017-08-03T10:37:31.149Z,25.69
2017-08-03T10:38:55.026Z,25.81
2017-08-03T10:40:17.208Z,25.81
2017-08-03T10:41:46.605Z,25.81
2017-08-03T10:43:09.449Z,25.69
2017-08-03T10:44:32.765Z,25.63
2017-08-03T10:45:55.526Z,25.63
2017-08-03T10:47:18.308Z,25.56
2017-08-03T10:48:41.205Z,25.5
2017-08-03T10:50:06.833Z,25.44
2017-08-03T10:51:37.747Z,25.38
2017-08-03T10:53:02.148Z,25.38
2017-08-03T10:54:25.500Z,25.38
2017-08-03T10:55:50.753Z,25.38
2017-08-03T10:57:13.472Z,25.31
2017-08-03T10:58:36.217Z,25.31
2017-08-03T11:00:02.654Z,25.31
2017-08-03T11:01:26.735Z,25.31
2017-08-03T11:02:49.506Z,25.31
2017-08-03T11:04:18.262Z,25.31
2017-08-03T11:05:40.505Z,25.31
2017-08-03T11:07:04.981Z,25.31
2017-08-03T11:08:27.605Z,25.38
2017-08-03T11:09:51.462Z,25.38
2017-08-03T11:11:13.887Z,25.38
2017-08-03T11:12:51.204Z,25.38
2017-08-03T11:14:13.160Z,25.38
2017-08-03T11:15:39.036Z,25.38
2017-08-03T11:17:04.088Z,25.38
2017-08-03T11:18:28.288Z,25.38
2017-08-03T11:19:50.725Z,25.38
2017-08-03T11:21:13.161Z,25.38
2017-08-03T11:22:37.264Z,25.38
2017-08-03T11:24:00.524Z,25.38
2017-08-03T11:25:22.768Z,25.38
2017-08-03T11:26:45.443Z,25.38
2017-08-03T11:28:07.602Z,25.25
2017-08-03T11:29:30.274Z,25.13
2017-08-03T11:30:53.551Z,25.25
2017-08-03T11:32:16.148Z,25.31
2017-08-03T11:33:38.805Z,25.38
2017-08-03T11:35:01.802Z,25.44
2017-08-03T11:36:24.724Z,25.5
2017-08-03T11:37:47.321Z,25.56
2017-08-03T11:39:09.831Z,25.56
2017-08-03T11:40:32.983Z,25.5
2017-08-03T11:41:55.894Z,25.5
2017-08-03T11:43:18.502Z,25.44
2017-08-03T11:44:40.769Z,25.44
2017-08-03T11:46:03.410Z,25.5
2017-08-03T11:47:26.132Z,25.44
2017-08-03T11:48:48.297Z,25.44
2017-08-03T11:50:10.376Z,25.44
2017-08-03T11:51:32.934Z,25.44
2017-08-03T11:52:54.971Z,25.44
2017-08-03T11:54:17.193Z,25.38
2017-08-03T11:55:39.652Z,25.38
2017-08-03T11:57:02.089Z,25.44
2017-08-03T11:58:24.097Z,25.5
2017-08-03T11:59:46.132Z,25.5
2017-08-03T12:01:08.135Z,25.56
2017-08-03T12:02:31.054Z,25.56
2017-08-03T12:03:53.102Z,25.63
2017-08-03T12:05:15.141Z,25.69
2017-08-03T12:06:37.052Z,25.75
2017-08-03T12:07:59.615Z,25.81
2017-08-03T12:09:21.623Z,25.88
2017-08-03T12:10:43.841Z,25.94
2017-08-03T12:12:06.217Z,25.94
2017-08-03T12:13:28.798Z,26
2017-08-03T12:14:50.867Z,26
2017-08-03T12:16:15.747Z,26.13
2017-08-03T12:17:37.861Z,26.25
2017-08-03T12:19:00.723Z,26.38
2017-08-03T12:20:22.824Z,26.5
2017-08-03T12:21:45.502Z,26.5
2017-08-03T12:23:10.463Z,26.5
2017-08-03T12:24:33.026Z,26.63
2017-08-03T12:25:55.551Z,26.56
2017-08-03T12:27:18.582Z,26.56
2017-08-03T12:28:41.084Z,26.56
2017-08-03T12:30:04.361Z,26.5
2017-08-03T12:31:27.166Z,26.38
2017-08-03T12:32:49.723Z,26.38
2017-08-03T12:34:12.462Z,26.44
2017-08-03T12:35:35.592Z,26.5
2017-08-03T12:36:57.928Z,26.63
2017-08-03T12:38:19.989Z,26.63
2017-08-03T12:39:42.372Z,26.69
2017-08-03T12:41:04.993Z,26.75
2017-08-03T12:42:27.309Z,26.81
2017-08-03T12:43:49.808Z,26.88
2017-08-03T12:45:12.034Z,26.88
2017-08-03T12:46:34.712Z,26.88
2017-08-03T12:47:56.908Z,26.88
2017-08-03T12:49:19.170Z,26.81
2017-08-03T12:50:41.260Z,26.81
2017-08-03T12:52:04.215Z,26.75
2017-08-03T12:53:26.256Z,26.81
2017-08-03T12:54:48.251Z,26.81
2017-08-03T12:56:10.296Z,26.75
2017-08-03T12:57:32.820Z,26.75
2017-08-03T12:58:54.773Z,26.69
2017-08-03T13:00:17.259Z,26.69
2017-08-03T13:01:39.572Z,26.75
2017-08-03T13:03:02.156Z,26.75
2017-08-03T13:04:24.316Z,26.75
2017-08-03T13:05:46.501Z,26.81
2017-08-03T13:07:08.699Z,26.88
2017-08-03T13:08:32.858Z,26.94
2017-08-03T13:09:54.855Z,26.94
2017-08-03T13:11:17.319Z,26.88
2017-08-03T13:12:39.379Z,26.81
2017-08-03T13:14:02.075Z,26.69
2017-08-03T13:15:24.076Z,26.63
2017-08-03T13:16:46.020Z,26.69
2017-08-03T13:18:08.158Z,26.75
2017-08-03T13:19:31.064Z,26.81
2017-08-03T13:20:53.017Z,26.88
2017-08-03T13:22:15.142Z,26.94
2017-08-03T13:23:37.587Z,27
2017-08-03T13:25:00.640Z,27
2017-08-03T13:26:23.503Z,26.94
2017-08-03T13:27:46.001Z,26.81
2017-08-03T13:29:08.547Z,26.81
2017-08-03T13:30:31.451Z,26.81
2017-08-03T13:31:53.412Z,26.75
2017-08-03T13:33:16.203Z,26.75
2017-08-03T13:34:38.231Z,26.69
2017-08-03T13:36:01.246Z,26.56
2017-08-03T13:37:23.397Z,26.5
2017-08-03T13:38:45.609Z,26.56
2017-08-03T13:40:07.755Z,26.5
2017-08-03T13:41:30.435Z,26.5
2017-08-03T13:42:52.388Z,26.44
2017-08-03T13:44:14.592Z,26.38
2017-08-03T13:45:36.673Z,26.38
2017-08-03T13:46:59.216Z,26.38
2017-08-03T13:48:21.503Z,26.38
2017-08-03T13:49:43.525Z,26.25
2017-08-03T13:51:06.043Z,26.13
2017-08-03T13:52:29.322Z,26.06
2017-08-03T13:53:51.959Z,26
2017-08-03T13:55:14.803Z,26
2017-08-03T13:56:37.304Z,26
2017-08-03T13:58:00.302Z,25.94
2017-08-03T13:59:22.867Z,25.81
2017-08-03T14:00:45.449Z,25.81
2017-08-03T14:02:07.829Z,25.81
2017-08-03T14:03:32.046Z,25.81
2017-08-03T14:04:54.546Z,25.75
2017-08-03T14:06:16.546Z,25.63
2017-08-03T14:07:38.533Z,25.56
2017-08-03T14:09:01.449Z,25.56
2017-08-03T14:10:23.531Z,25.44
2017-08-03T14:11:45.550Z,25.44
2017-08-03T14:13:07.614Z,25.56
2017-08-03T14:14:30.225Z,25.75
2017-08-03T14:15:52.104Z,25.75
2017-08-03T14:17:13.914Z,25.81
2017-08-03T14:18:35.778Z,25.75
2017-08-03T14:19:58.214Z,25.75
2017-08-03T14:21:20.339Z,25.69
2017-08-03T14:22:42.274Z,25.69
2017-08-03T14:24:04.527Z,25.69
2017-08-03T14:25:26.883Z,25.63
2017-08-03T14:26:48.755Z,25.63
2017-08-03T14:28:10.758Z,25.56
2017-08-03T14:29:32.873Z,25.63
2017-08-03T14:30:56.569Z,25.69
2017-08-03T14:32:18.367Z,25.75
2017-08-03T14:33:40.197Z,25.88
2017-08-03T14:35:02.361Z,25.81
2017-08-03T14:36:25.108Z,25.88
2017-08-03T14:37:47.133Z,26
2017-08-03T14:39:09.029Z,26.06
2017-08-03T14:40:31.525Z,26.13
2017-08-03T14:41:54.779Z,26.19
2017-08-03T14:43:17.024Z,26.25
2017-08-03T14:44:39.427Z,26.25
2017-08-03T14:46:01.404Z,26.25
2017-08-03T14:47:24.193Z,26.19
2017-08-03T14:48:46.610Z,26.19
2017-08-03T14:50:08.508Z,26.19
2017-08-03T14:51:30.415Z,26.19
2017-08-03T14:52:52.831Z,26.13
2017-08-03T14:54:14.921Z,26.19
2017-08-03T14:55:36.945Z,26.31
2017-08-03T14:56:58.856Z,26.38
2017-08-03T14:58:21.173Z,26.44
2017-08-03T14:59:43.206Z,26.44
2017-08-03T15:01:05.067Z,26.44
2017-08-03T15:02:26.966Z,26.44
2017-08-03T15:03:49.389Z,26.44
2017-08-03T15:05:11.206Z,26.5
2017-08-03T15:06:33.014Z,26.5
2017-08-03T15:07:54.967Z,26.5
2017-08-03T15:09:17.384Z,26.56
2017-08-03T15:10:39.205Z,26.56
2017-08-03T15:12:01.416Z,26.56
2017-08-03T15:13:23.605Z,26.56
2017-08-03T15:14:46.268Z,26.63
2017-08-03T15:16:08.344Z,26.63
2017-08-03T15:17:31.002Z,26.63
2017-08-03T15:18:52.847Z,26.56
2017-08-03T15:20:15.192Z,26.56
2017-08-03T15:21:37.038Z,26.56
2017-08-03T15:22:58.971Z,26.56
2017-08-03T15:24:21.167Z,26.56
2017-08-03T15:25:43.484Z,26.5
2017-08-03T15:27:05.331Z,26.44
2017-08-03T15:28:27.304Z,26.5
2017-08-03T15:29:49.224Z,26.44
2017-08-03T15:31:11.599Z,26.44
2017-08-03T15:32:33.546Z,26.5
2017-08-03T15:33:55.394Z,26.56
2017-08-03T15:35:17.569Z,26.56
2017-08-03T15:36:40.168Z,26.5
2017-08-03T15:38:02.029Z,26.5
2017-08-03T15:39:24.312Z,26.44
2017-08-03T15:40:46.204Z,26.44
2017-08-03T15:42:08.547Z,26.44
2017-08-03T15:43:30.312Z,26.5
2017-08-03T15:44:52.193Z,26.5
2017-08-03T15:46:14.031Z,26.44
2017-08-03T15:47:36.644Z,26.44
2017-08-03T15:48:58.849Z,26.38
2017-08-03T15:50:20.726Z,26.44
2017-08-03T15:51:42.568Z,26.38
2017-08-03T15:53:05.027Z,26.38
2017-08-03T15:54:27.359Z,26.38
2017-08-03T15:55:51.022Z,26.38
2017-08-03T15:57:13.143Z,26.38
2017-08-03T15:58:38.644Z,26.38
2017-08-03T16:00:00.601Z,26.38
2017-08-03T16:01:22.837Z,26.38
2017-08-03T16:02:44.763Z,26.44
2017-08-03T16:04:07.126Z,26.5
2017-08-03T16:05:28.970Z,26.44
2017-08-03T16:06:52.528Z,26.44
2017-08-03T16:08:14.574Z,26.44
2017-08-03T16:09:37.409Z,26.38
2017-08-03T16:10:59.243Z,26.38
2017-08-03T16:12:21.026Z,26.38
2017-08-03T16:13:42.883Z,26.38
2017-08-03T16:15:05.148Z,26.31
2017-08-03T16:16:26.948Z,26.31
2017-08-03T16:17:48.764Z,26.31
2017-08-03T16:19:10.593Z,26.31
2017-08-03T16:20:33.005Z,26.25
2017-08-03T16:21:55.045Z,26.31
2017-08-03T16:23:16.932Z,26.31
2017-08-03T16:24:38.829Z,26.31
2017-08-03T16:26:01.128Z,26.25
2017-08-03T16:27:23.267Z,26.25
2017-08-03T16:28:45.220Z,26.25
2017-08-03T16:30:07.066Z,26.25
2017-08-03T16:31:29.390Z,26.25
2017-08-03T16:32:51.208Z,26.19
2017-08-03T16:34:13.066Z,26.19
2017-08-03T16:35:34.884Z,26.13
2017-08-03T16:36:57.285Z,26.13
2017-08-03T16:38:19.061Z,26.13
2017-08-03T16:39:40.886Z,26.13
2017-08-03T16:41:04.429Z,26.13
2017-08-03T16:42:27.164Z,26.06
2017-08-03T16:43:49.131Z,26.06
2017-08-03T16:45:11.640Z,26.06
2017-08-03T16:46:33.586Z,26
2017-08-03T16:47:55.889Z,26
2017-08-03T16:49:18.109Z,26
2017-08-03T16:50:39.885Z,26
2017-08-03T16:52:01.729Z,26
2017-08-03T16:53:24.023Z,26
2017-08-03T16:54:45.865Z,26
2017-08-03T16:56:07.693Z,26
2017-08-03T16:57:29.531Z,26
2017-08-03T16:58:51.805Z,26
2017-08-03T17:00:13.563Z,25.94
2017-08-03T17:01:35.327Z,25.94
2017-08-03T17:02:57.187Z,25.94
2017-08-03T17:04:19.450Z,25.94
2017-08-03T17:05:41.352Z,25.94
2017-08-03T17:07:03.205Z,25.88
2017-08-03T17:08:25.027Z,25.88
2017-08-03T17:09:47.290Z,25.88
2017-08-03T17:11:09.086Z,25.88
2017-08-03T17:12:30.910Z,25.88
2017-08-03T17:13:52.702Z,25.88
2017-08-03T17:15:15.502Z,25.81
2017-08-03T17:16:37.345Z,25.81
2017-08-03T17:17:59.112Z,25.81
2017-08-03T17:19:21.093Z,25.81
2017-08-03T17:20:44.933Z,25.81
2017-08-03T17:22:06.824Z,25.81
2017-08-03T17:23:28.702Z,25.81
2017-08-03T17:24:50.465Z,25.75
2017-08-03T17:26:12.725Z,25.75
2017-08-03T17:27:34.510Z,25.75
2017-08-03T17:28:56.263Z,25.75
2017-08-03T17:30:18.083Z,25.75
2017-08-03T17:31:40.443Z,25.75
2017-08-03T17:33:02.185Z,25.69
2017-08-03T17:34:23.987Z,25.69
2017-08-03T17:35:45.765Z,25.69
2017-08-03T17:37:08.042Z,25.63
2017-08-03T17:38:29.824Z,25.63
2017-08-03T17:39:51.628Z,25.63
2017-08-03T17:41:13.964Z,25.63
2017-08-03T17:42:39.948Z,25.63
2017-08-03T17:44:01.748Z,25.63
2017-08-03T17:45:23.561Z,25.63
2017-08-03T17:46:45.360Z,25.63
2017-08-03T17:48:07.586Z,25.63
2017-08-03T17:49:29.510Z,25.56
2017-08-03T17:50:51.252Z,25.56
2017-08-03T17:52:13.110Z,25.56
2017-08-03T17:53:35.368Z,25.56
2017-08-03T17:54:57.245Z,25.56
2017-08-03T17:56:19.025Z,25.56
2017-08-03T17:57:40.866Z,25.56
2017-08-03T17:59:03.191Z,25.56
2017-08-03T18:00:25.005Z,25.5
2017-08-03T18:01:46.792Z,25.5
2017-08-03T18:03:08.606Z,25.5
2017-08-03T18:04:30.864Z,25.5
2017-08-03T18:05:52.647Z,25.5
2017-08-03T18:07:14.467Z,25.5
2017-08-03T18:08:38.370Z,25.5
2017-08-03T18:10:00.910Z,25.44
2017-08-03T18:11:22.748Z,25.44
2017-08-03T18:12:44.585Z,25.44
2017-08-03T18:14:06.343Z,25.44
2017-08-03T18:15:28.650Z,25.44
2017-08-03T18:16:50.446Z,25.44
2017-08-03T18:18:12.161Z,25.38
2017-08-03T18:19:34.083Z,25.38
2017-08-03T18:20:56.385Z,25.38
2017-08-03T18:22:18.165Z,25.38
2017-08-03T18:23:39.949Z,25.38
2017-08-03T18:25:01.751Z,25.38
2017-08-03T18:26:24.776Z,25.38
2017-08-03T18:27:46.645Z,25.31
2017-08-03T18:29:08.427Z,25.31
2017-08-03T18:30:30.157Z,25.31
2017-08-03T18:31:54.187Z,25.31
2017-08-03T18:33:15.948Z,25.31
2017-08-03T18:34:37.742Z,25.31
2017-08-03T18:36:02.525Z,25.25
2017-08-03T18:37:24.786Z,25.25
2017-08-03T18:38:46.628Z,25.25
2017-08-03T18:40:08.323Z,25.25
2017-08-03T18:41:30.059Z,25.19
2017-08-03T18:42:52.299Z,25.25
2017-08-03T18:44:14.127Z,25.25
2017-08-03T18:45:36.087Z,25.25
2017-08-03T18:46:57.825Z,25.19
2017-08-03T18:48:20.107Z,25.19
2017-08-03T18:49:41.880Z,25.19
2017-08-03T18:51:03.725Z,25.19
2017-08-03T18:52:25.541Z,25.19
2017-08-03T18:53:47.789Z,25.19
2017-08-03T18:55:09.563Z,25.13
2017-08-03T18:56:31.377Z,25.13
2017-08-03T18:57:53.173Z,25.13
2017-08-03T18:59:15.422Z,25.13
2017-08-03T19:00:37.565Z,25.13
2017-08-03T19:01:59.927Z,25.13
2017-08-03T19:03:21.686Z,25.13
2017-08-03T19:04:43.963Z,25.06
2017-08-03T19:06:05.720Z,25.06
2017-08-03T19:07:27.544Z,25.06
2017-08-03T19:08:49.326Z,25.06
2017-08-03T19:10:11.569Z,25.06
2017-08-03T19:11:33.305Z,25.06
2017-08-03T19:12:55.027Z,25.06
2017-08-03T19:14:16.828Z,25.06
2017-08-03T19:15:39.122Z,25
2017-08-03T19:17:00.904Z,25
2017-08-03T19:18:23.150Z,25
2017-08-03T19:19:45.109Z,25
2017-08-03T19:21:07.603Z,25
2017-08-03T19:22:29.769Z,25
2017-08-03T19:23:51.606Z,25
2017-08-03T19:25:13.352Z,25
2017-08-03T19:26:35.604Z,25
2017-08-03T19:27:57.403Z,24.94
2017-08-03T19:29:19.142Z,25
2017-08-03T19:30:41.247Z,24.94
2017-08-03T19:32:03.527Z,24.94
2017-08-03T19:33:25.261Z,24.94
2017-08-03T19:34:47.097Z,24.94
2017-08-03T19:36:08.986Z,24.94
2017-08-03T19:37:31.245Z,24.94
2017-08-03T19:38:53.013Z,24.94
2017-08-03T19:40:14.781Z,24.94
2017-08-03T19:41:36.909Z,24.88
2017-08-03T19:42:59.208Z,24.88
2017-08-03T19:44:21.022Z,24.88
2017-08-03T19:45:42.781Z,24.88